Time;durP1;ratioP1;P1;durP2;ratioP2;P2;SDS_P1;SDS_P2;PMS_P1;PMS_P2;Temp;Humidity;BMP_temperature;BMP_pressure;BME280_temperature;BME280_humidity;BME280_pressure;Samples;Min_cycle;Max_cycle;Signal;HPM_P1;HPM_P2
2022/03/27 00:00:38;;;;;;;4.47;2.45;;;;;;;-142.75;100.00;78996.19;5027983;28;20137;-72
2022/03/27 00:03:06;;;;;;;4.17;2.57;;;;;;;-142.75;100.00;78996.19;5029747;28;20582;-73
2022/03/27 00:05:32;;;;;;;4.10;2.47;;;;;;;-142.75;100.00;78996.19;5028001;28;20045;-73
2022/03/27 00:07:57;;;;;;;;;;;;;;;-142.75;100.00;78998.16;5029663;28;20091;-73
2022/03/27 00:10:23;;;;;;;3.87;2.57;;;;;;;-142.75;100.00;78990.28;5029044;28;19912;-71
2022/03/27 00:12:48;;;;;;;5.60;2.75;;;;;;;-142.75;100.00;78996.19;5028120;28;20033;-71
2022/03/27 00:15:13;;;;;;;4.57;3.10;;;;;;;-142.75;100.00;78990.28;5029882;28;20108;-69
2022/03/27 00:17:39;;;;;;;4.47;2.70;;;;;;;-142.75;100.00;78980.44;5029825;28;20032;-69
2022/03/27 00:20:08;;;;;;;6.50;2.67;;;;;;;-142.75;100.00;78982.41;5027439;28;20033;-70
2022/03/27 00:22:34;;;;;;;4.63;3.07;;;;;;;-142.75;100.00;78978.47;5028942;28;20034;-71
2022/03/27 00:24:59;;;;;;;5.20;3.25;;;;;;;-142.75;100.00;78980.44;5029657;28;20032;-71
2022/03/27 00:27:24;;;;;;;4.55;2.95;;;;;;;-142.75;100.00;78972.56;5028945;28;20487;-71
2022/03/27 00:29:50;;;;;;;5.47;3.22;;;;;;;-142.75;100.00;78972.56;5028568;28;20049;-71
2022/03/27 00:32:16;;;;;;;6.30;3.13;;;;;;;-142.75;100.00;78972.56;5027507;28;20025;-69
2022/03/27 00:34:41;;;;;;;6.40;3.08;;;;;;;-142.75;100.00;78978.47;5028772;28;20021;-71
2022/03/27 00:37:06;;;;;;;6.75;3.00;;;;;;;-142.75;100.00;78982.41;5028986;28;20036;-70
2022/03/27 00:39:32;;;;;;;6.93;3.65;;;;;;;-142.75;100.00;78982.41;5028296;28;20037;-72
2022/03/27 00:41:57;;;;;;;7.22;3.28;;;;;;;-142.75;100.00;78980.44;5028333;28;20500;-70
2022/03/27 00:44:23;;;;;;;3.92;3.15;;;;;;;-142.75;100.00;78978.47;5029324;28;20021;-74
2022/03/27 00:46:49;;;;;;;5.10;3.25;;;;;;;-142.75;100.00;78970.59;5029002;28;20068;-73
2022/03/27 00:49:15;;;;;;;5.13;3.03;;;;;;;-142.75;100.00;78980.44;5028386;28;20025;-73
2022/03/27 00:51:40;;;;;;;7.55;3.63;;;;;;;-142.75;100.00;78988.31;5028605;28;20075;-73
2022/03/27 00:54:05;;;;;;;4.93;3.42;;;;;;;-142.75;100.00;78984.38;5027053;28;20025;-70
2022/03/27 00:56:30;;;;;;;4.20;3.10;;;;;;;-142.75;100.00;78972.56;5028559;28;20068;-70
2022/03/27 00:58:56;;;;;;;5.80;3.63;;;;;;;-142.75;100.00;78972.56;5028271;28;20417;-71
2022/03/27 01:01:31;;;;;;;6.60;3.85;;;;;;;-142.75;100.00;78972.56;5028487;28;20523;-71
2022/03/27 01:03:58;;;;;;;6.20;3.50;;;;;;;-142.75;100.00;78974.53;5028434;28;20014;-71
2022/03/27 01:06:31;;;;;;;6.40;3.83;;;;;;;-142.75;100.00;78968.63;5028490;28;20067;-71
2022/03/27 01:11:41;;;;;;;5.93;3.90;;;;;;;-142.75;100.00;78986.34;5028368;28;20040;-71
2022/03/27 01:14:06;;;;;;;6.60;3.95;;;;;;;-142.75;100.00;78994.22;5028687;28;20022;-71
2022/03/27 01:16:44;;;;;;;6.05;3.70;;;;;;;-142.75;100.00;78984.38;5027199;28;20072;-71
2022/03/27 01:19:14;;;;;;;6.27;4.10;;;;;;;-142.75;100.00;78988.31;5026791;28;20063;-71
2022/03/27 01:21:42;;;;;;;6.03;3.80;;;;;;;-142.75;100.00;78996.19;5027452;28;20026;-72
2022/03/27 01:24:09;;;;;;;6.37;4.43;;;;;;;-142.75;100.00;78990.28;5028655;28;20051;-71
2022/03/27 01:26:35;;;;;;;6.37;4.23;;;;;;;-142.75;100.00;78980.44;5028019;28;20013;-69
2022/03/27 01:29:01;;;;;;;8.00;5.13;;;;;;;-142.75;100.00;78974.53;5026503;28;20064;-70
2022/03/27 01:31:27;;;;;;;6.70;4.72;;;;;;;-142.75;100.00;78968.63;5031796;28;20029;-71
2022/03/27 01:33:52;;;;;;;7.40;5.13;;;;;;;-142.75;100.00;78968.63;5032093;28;20025;-70
2022/03/27 01:36:26;;;;;;;8.10;4.90;;;;;;;-142.75;100.00;78968.63;5032127;28;20021;-71
2022/03/27 01:38:53;;;;;;;7.53;4.85;;;;;;;-142.75;100.00;78972.56;5031073;28;20487;-70
2022/03/27 01:41:19;;;;;;;6.45;4.97;;;;;;;-142.75;100.00;78964.69;5032056;28;20033;-71
2022/03/27 01:43:45;;;;;;;8.80;5.60;;;;;;;-142.75;100.00;78958.75;5032484;28;20030;-71
2022/03/27 01:46:10;;;;;;;9.80;5.70;;;;;;;-142.75;100.00;78966.66;5031591;28;20026;-71
2022/03/27 01:48:35;;;;;;;9.20;5.80;;;;;;;-142.75;100.00;78966.66;5031500;28;20076;-71
2022/03/27 01:51:00;;;;;;;7.95;4.88;;;;;;;-142.75;100.00;78970.59;5030290;28;20462;-70
2022/03/27 01:53:26;;;;;;;11.40;5.78;;;;;;;-142.75;100.00;78970.59;5030580;28;20117;-71
2022/03/27 01:55:52;;;;;;;11.63;5.80;;;;;;;-142.75;100.00;78964.69;5031500;28;20024;-71
2022/03/27 01:58:17;;;;;;;9.77;6.35;;;;;;;-142.75;100.00;78970.59;5029990;28;20112;-71
2022/03/27 02:00:43;;;;;;;9.30;5.50;;;;;;;-142.75;100.00;78976.50;5031685;28;20034;-71
2022/03/27 02:03:10;;;;;;;8.80;5.78;;;;;;;-142.75;100.00;78980.44;5031744;28;20139;-72
2022/03/27 02:05:36;;;;;;;9.43;5.97;;;;;;;-142.75;100.00;78990.28;5031305;28;20048;-70
2022/03/27 02:08:01;;;;;;;10.63;5.10;;;;;;;-142.75;100.00;78996.19;5029954;28;20483;-70
2022/03/27 02:10:27;;;;;;;9.48;6.00;;;;;;;-142.75;100.00;78994.22;5029994;28;20769;-70
2022/03/27 02:12:52;;;;;;;10.32;6.07;;;;;;;-142.75;100.00;78994.22;5031683;28;20626;-73
2022/03/27 02:15:17;;;;;;;11.17;6.90;;;;;;;-142.75;100.00;78996.19;5031552;28;20055;-71
2022/03/27 02:17:42;;;;;;;11.18;6.00;;;;;;;-142.75;100.00;79004.06;5031519;28;20276;-72
2022/03/27 02:20:09;;;;;;;11.50;6.38;;;;;;;-142.75;100.00;79008.00;5031163;28;20394;-72
2022/03/27 02:22:34;;;;;;;12.13;6.03;;;;;;;-142.75;100.00;79015.88;5030895;28;20025;-71
2022/03/27 02:24:59;;;;;;;9.32;5.47;;;;;;;-142.75;100.00;79009.97;5031637;28;20029;-72
2022/03/27 02:27:25;;;;;;;9.13;6.03;;;;;;;-142.75;100.00;79013.91;5030115;28;20144;-72
2022/03/27 02:29:50;;;;;;;9.02;5.45;;;;;;;-142.75;100.00;79023.75;5044781;28;20026;-70
2022/03/27 02:32:15;;;;;;;11.43;6.40;;;;;;;-142.75;100.00;79027.69;5031027;28;20025;-70
2022/03/27 02:34:41;;;;;;;12.98;6.68;;;;;;;-142.75;100.00;79035.59;5030934;28;20086;-71
2022/03/27 02:37:06;;;;;;;10.18;6.88;;;;;;;-142.75;100.00;79031.66;5029689;28;20053;-72
2022/03/27 02:39:32;;;;;;;14.55;7.35;;;;;;;-142.75;100.00;79019.81;5030109;28;20037;-70
2022/03/27 02:41:58;;;;;;;10.57;6.53;;;;;;;-142.75;100.00;79041.50;5028187;28;20029;-71
2022/03/27 02:44:23;;;;;;;10.85;6.03;;;;;;;-142.75;100.00;79053.31;5030899;28;20541;-72
2022/03/27 02:46:50;;;;;;;11.37;6.80;;;;;;;-142.75;100.00;79047.41;5029162;28;20063;-72
2022/03/27 02:49:16;;;;;;;10.77;6.30;;;;;;;-142.75;100.00;79043.47;5030749;28;20272;-72
2022/03/27 02:51:44;;;;;;;11.07;6.20;;;;;;;-142.75;100.00;79043.47;5028933;28;20048;-72
2022/03/27 02:54:10;;;;;;;11.53;7.07;;;;;;;-142.75;100.00;79043.47;5030075;28;20033;-72
2022/03/27 02:56:35;;;;;;;11.38;6.30;;;;;;;-142.75;100.00;79065.13;5030342;28;20696;-71
2022/03/27 02:59:00;;;;;;;10.68;6.07;;;;;;;-142.75;100.00;79069.06;5028492;28;20112;-71
2022/03/27 03:01:26;;;;;;;9.70;6.55;;;;;;;-142.75;100.00;79096.66;5030056;28;20029;-72
2022/03/27 03:03:51;;;;;;;12.20;6.53;;;;;;;-142.75;100.00;79098.63;5028946;28;20503;-71
2022/03/27 03:06:17;;;;;;;12.40;6.55;;;;;;;-142.75;100.00;79098.63;5027512;28;20029;-71
2022/03/27 03:08:42;;;;;;;;;;;;;;;-142.75;100.00;79102.56;5028984;28;20029;-71
2022/03/27 03:11:08;;;;;;;12.27;6.83;;;;;;;-142.75;100.00;79104.53;5029514;28;19913;-70
2022/03/27 03:13:33;;;;;;;14.75;7.72;;;;;;;-142.75;100.00;79102.56;5030148;28;20111;-71
2022/03/27 03:15:59;;;;;;;13.50;7.57;;;;;;;-142.75;100.00;79100.59;5029725;28;20030;-69
2022/03/27 03:18:25;;;;;;;12.18;7.18;;;;;;;-142.75;100.00;79098.63;5028119;28;20045;-70
2022/03/27 03:20:50;;;;;;;13.80;7.65;;;;;;;-142.75;100.00;79118.31;5029461;28;20025;-71
2022/03/27 03:23:16;;;;;;;16.90;8.50;;;;;;;-142.75;100.00;79118.31;5028174;28;20033;-72
2022/03/27 03:25:42;;;;;;;13.68;7.75;;;;;;;-142.75;100.00;79112.41;5030184;28;20064;-71
2022/03/27 03:28:08;;;;;;;13.77;7.57;;;;;;;-142.75;100.00;79102.56;5029062;28;20493;-71
2022/03/27 03:30:34;;;;;;;17.20;8.68;;;;;;;-142.75;100.00;79104.53;5029516;28;20032;-70
2022/03/27 03:32:59;;;;;;;16.65;8.30;;;;;;;-142.75;100.00;79112.41;5029273;28;20056;-71
2022/03/27 03:35:24;;;;;;;15.65;8.90;;;;;;;-142.75;100.00;79122.25;5029065;28;20056;-70
2022/03/27 03:37:50;;;;;;;15.05;7.93;;;;;;;-142.75;100.00;79112.41;5029018;28;20029;-70
2022/03/27 03:40:15;;;;;;;19.38;9.85;;;;;;;-142.75;100.00;79120.28;5029025;28;20021;-71
2022/03/27 03:42:41;;;;;;;15.93;8.60;;;;;;;-142.75;100.00;79128.16;5028830;28;20021;-71
2022/03/27 03:45:06;;;;;;;16.88;9.32;;;;;;;-142.75;100.00;79141.94;5029394;28;20026;-70
2022/03/27 03:47:32;;;;;;;18.58;9.43;;;;;;;-142.75;100.00;79134.06;5028714;28;20029;-72
2022/03/27 03:49:57;;;;;;;17.42;8.80;;;;;;;-142.75;100.00;79141.94;5028537;28;20115;-70
2022/03/27 03:52:23;;;;;;;16.73;9.27;;;;;;;-142.75;100.00;79130.13;5028582;28;20075;-72
2022/03/27 03:54:48;;;;;;;16.52;9.23;;;;;;;-142.75;100.00;79138.00;5029649;28;20024;-71
2022/03/27 03:57:15;;;;;;;16.67;8.98;;;;;;;-142.75;100.00;79126.19;5027825;28;20037;-72
2022/03/27 03:59:41;;;;;;;15.23;8.90;;;;;;;-142.75;100.00;79130.13;5029106;28;20025;-70
2022/03/27 04:02:07;;;;;;;14.02;8.25;;;;;;;-142.75;100.00;79138.00;5029488;28;20063;-70
2022/03/27 04:04:34;;;;;;;15.47;8.93;;;;;;;-142.75;100.00;79136.03;5028148;28;20017;-71
2022/03/27 04:07:00;;;;;;;17.67;10.00;;;;;;;-142.75;100.00;79136.03;5029141;28;20032;-71
2022/03/27 04:09:26;;;;;;;16.42;8.88;;;;;;;-142.75;100.00;79139.97;5028947;28;20403;-70
2022/03/27 04:11:51;;;;;;;12.67;8.47;;;;;;;-142.75;100.00;79122.25;5029205;28;20049;-72
2022/03/27 04:14:17;;;;;;;15.27;9.18;;;;;;;-142.75;100.00;79128.16;5029359;28;20051;-71
2022/03/27 04:16:42;;;;;;;15.63;9.13;;;;;;;-142.75;100.00;79134.06;5029110;28;20056;-70
2022/03/27 04:19:08;;;;;;;15.57;9.18;;;;;;;-142.75;100.00;79138.00;5029137;28;20021;-72
2022/03/27 04:21:34;;;;;;;21.05;10.82;;;;;;;-142.75;100.00;79124.22;5028902;28;20399;-72
2022/03/27 04:23:59;;;;;;;18.42;9.85;;;;;;;-142.75;100.00;79122.25;5029323;28;20411;-72
2022/03/27 04:26:24;;;;;;;16.52;10.05;;;;;;;-142.75;100.00;79114.38;5029550;28;20483;-72
2022/03/27 04:28:50;;;;;;;16.63;9.02;;;;;;;-142.75;100.00;79130.13;5028829;28;20021;-72
2022/03/27 04:31:15;;;;;;;18.10;9.87;;;;;;;-142.75;100.00;79139.97;5028717;28;20026;-72
2022/03/27 04:33:40;;;;;;;16.10;8.82;;;;;;;-142.75;100.00;79141.94;5028773;28;20854;-72
2022/03/27 04:36:07;;;;;;;15.10;8.50;;;;;;;-142.75;100.00;79147.84;5028939;28;20028;-72
2022/03/27 04:38:33;;;;;;;16.80;9.90;;;;;;;-142.75;100.00;79147.84;5028481;28;20272;-70
2022/03/27 04:40:58;;;;;;;15.15;8.52;;;;;;;-142.75;100.00;79157.72;5027469;28;20022;-72
2022/03/27 04:43:24;;;;;;;15.60;9.32;;;;;;;-142.75;100.00;79151.78;5027954;28;20017;-72
2022/03/27 04:45:49;;;;;;;17.67;8.65;;;;;;;-142.75;100.00;79183.31;5028728;28;20028;-71
2022/03/27 04:48:15;;;;;;;15.40;8.30;;;;;;;-142.75;100.00;79165.59;5028345;28;20076;-72
2022/03/27 04:50:40;;;;;;;15.88;8.15;;;;;;;-142.75;100.00;79169.53;5027273;28;20035;-71
2022/03/27 04:53:06;;;;;;;13.82;7.68;;;;;;;-142.75;100.00;79171.50;5028419;28;20403;-72
2022/03/27 04:55:31;;;;;;;14.98;8.00;;;;;;;-142.75;100.00;79173.47;5028929;28;20079;-71
2022/03/27 04:57:56;;;;;;;17.25;8.57;;;;;;;-142.75;100.00;79179.38;5028116;28;20033;-72
2022/03/27 05:00:22;;;;;;;14.93;8.60;;;;;;;-142.75;100.00;79181.34;5028131;28;20040;-70
2022/03/27 05:02:47;;;;;;;14.00;7.20;;;;;;;-142.75;100.00;79191.19;5028466;28;20491;-71
2022/03/27 05:05:15;;;;;;;15.57;8.07;;;;;;;-142.75;100.00;79189.22;5028367;28;20053;-70
2022/03/27 05:07:42;;;;;;;12.47;7.90;;;;;;;-142.75;100.00;79175.44;5028496;28;20025;-72
2022/03/27 05:10:09;;;;;;;13.30;8.00;;;;;;;-142.75;100.00;79183.31;5027941;28;20110;-73
2022/03/27 05:12:34;;;;;;;14.67;8.37;;;;;;;-142.75;100.00;79173.47;5028492;28;20037;-72
2022/03/27 05:15:00;;;;;;;12.77;8.07;;;;;;;-142.75;100.00;79169.53;5027552;28;20030;-72
2022/03/27 05:17:25;;;;;;;13.65;8.00;;;;;;;-142.75;100.00;79183.31;5028383;28;20025;-71
2022/03/27 05:19:50;;;;;;;14.48;7.78;;;;;;;-142.75;100.00;79171.50;5027939;28;20032;-71
2022/03/27 05:22:16;;;;;;;14.32;7.93;;;;;;;-142.75;100.00;79185.28;5028152;28;20494;-71
2022/03/27 05:24:42;;;;;;;12.55;7.63;;;;;;;-142.75;100.00;79193.16;5028226;28;20026;-72
2022/03/27 05:27:07;;;;;;;14.43;7.30;;;;;;;-142.75;100.00;79204.97;5026422;28;20033;-71
2022/03/27 05:29:32;;;;;;;14.52;7.43;;;;;;;-142.75;100.00;79201.03;5027350;28;20026;-72
2022/03/27 05:31:58;;;;;;;15.23;8.20;;;;;;;-142.75;100.00;79214.81;5027574;28;20018;-72
2022/03/27 05:34:24;;;;;;;14.77;6.85;;;;;;;-142.75;100.00;79216.78;5027690;28;20295;-72
2022/03/27 05:36:50;;;;;;;12.03;7.30;;;;;;;-142.75;100.00;79210.88;5027647;28;20029;-72
2022/03/27 05:39:15;;;;;;;12.75;7.65;;;;;;;-142.75;100.00;79204.97;5027195;28;20033;-72
2022/03/27 05:41:40;;;;;;;13.25;7.28;;;;;;;-142.75;100.00;79201.03;5049231;23;20040;-67
2022/03/27 05:44:06;;;;;;;11.45;6.75;;;;;;;-142.75;100.00;79204.97;5065040;28;20108;-67
2022/03/27 05:46:31;;;;;;;13.10;7.28;;;;;;;-142.75;100.00;79204.97;5065919;28;20056;-65
2022/03/27 05:48:57;;;;;;;12.27;7.18;;;;;;;-142.75;100.00;79206.94;5065402;28;20119;-66
2022/03/27 05:51:22;;;;;;;11.90;7.00;;;;;;;-142.75;100.00;79206.94;5069532;28;20054;-68
2022/03/27 05:53:47;;;;;;;12.03;7.10;;;;;;;-142.75;100.00;79232.56;5086819;28;20089;-67
2022/03/27 05:56:13;;;;;;;10.80;6.15;;;;;;;-142.75;100.00;79238.47;5087735;28;20643;-67
2022/03/27 05:58:38;;;;;;;13.32;7.35;;;;;;;-142.75;100.00;79246.34;5085527;28;20031;-66
2022/03/27 06:01:05;;;;;;;11.10;6.20;;;;;;;-142.75;100.00;79244.38;5086953;28;20028;-67
2022/03/27 06:03:30;;;;;;;10.27;6.00;;;;;;;-142.75;100.00;79252.25;5086963;28;20102;-67
2022/03/27 06:05:55;;;;;;;10.98;6.68;;;;;;;-142.75;100.00;79250.28;5087183;28;20111;-67
2022/03/27 06:08:21;;;;;;;11.80;6.60;;;;;;;-142.75;100.00;79256.19;5086833;28;20084;-67
2022/03/27 06:10:48;;;;;;;10.77;6.35;;;;;;;-142.75;100.00;79254.22;5085792;28;20729;-67
2022/03/27 06:13:14;;;;;;;11.13;6.87;;;;;;;-142.75;100.00;79254.22;5087034;28;20039;-68
2022/03/27 06:15:40;;;;;;;11.47;6.67;;;;;;;-142.75;100.00;79244.38;5088886;28;20056;-68
2022/03/27 06:18:09;;;;;;;12.00;6.22;;;;;;;-142.75;100.00;79254.22;5090461;28;20055;-65
2022/03/27 06:20:34;;;;;;;13.00;6.93;;;;;;;-142.75;100.00;79252.25;5090497;28;20443;-67
2022/03/27 06:23:01;;;;;;;11.07;6.75;;;;;;;-142.75;100.00;79252.25;5090358;28;20103;-66
2022/03/27 06:25:27;;;;;;;;;;;;;;;-142.75;100.00;79248.31;5091456;28;20027;-67
2022/03/27 06:27:53;;;;;;;11.90;6.67;;;;;;;-142.75;100.00;79240.44;5090046;28;20021;-66
2022/03/27 06:30:20;;;;;;;;;;;;;;;-142.75;100.00;79238.47;5090786;28;20031;-67
2022/03/27 06:32:46;;;;;;;11.88;6.53;;;;;;;-142.75;100.00;79250.28;5090188;28;20054;-69
2022/03/27 06:35:13;;;;;;;12.67;7.47;;;;;;;-142.75;100.00;79240.44;5090136;28;20031;-68
2022/03/27 06:37:39;;;;;;;11.77;6.80;;;;;;;-142.75;100.00;79252.25;5090092;28;20036;-66
2022/03/27 06:40:06;;;;;;;12.13;6.93;;;;;;;-142.75;100.00;79250.28;5088419;28;20500;-68
2022/03/27 06:42:31;;;;;;;12.00;6.70;;;;;;;-142.75;100.00;79236.50;5090296;28;20028;-67
2022/03/27 06:44:57;;;;;;;11.48;6.68;;;;;;;-142.75;100.00;79230.59;5091081;28;20035;-68
2022/03/27 06:47:26;;;;;;;14.15;6.93;;;;;;;-142.75;100.00;79230.59;5090591;28;20032;-68
2022/03/27 06:49:52;;;;;;;10.67;6.17;;;;;;;-142.75;100.00;79236.50;5088911;28;20016;-66
2022/03/27 06:52:18;;;;;;;9.83;5.90;;;;;;;-142.75;100.00;79236.50;5090387;28;20028;-67
2022/03/27 06:54:44;;;;;;;14.68;6.78;;;;;;;-142.75;100.00;79228.63;5090618;28;20076;-67
2022/03/27 06:57:10;;;;;;;13.07;6.30;;;;;;;-142.75;100.00;79216.78;5090638;28;20482;-67
2022/03/27 07:05:04;;;;;;;10.57;5.90;;;;;;;-142.75;100.00;79244.38;5090365;28;20077;-67
2022/03/27 07:07:30;;;;;;;12.30;6.28;;;;;;;-142.75;100.00;79260.13;5088749;28;20020;-66
2022/03/27 07:09:56;;;;;;;12.15;5.32;;;;;;;-142.75;100.00;79269.97;5088669;28;20027;-68
2022/03/27 07:12:22;;;;;;;9.85;5.13;;;;;;;-142.75;100.00;79283.78;5089728;28;20016;-69
2022/03/27 07:14:47;;;;;;;8.77;4.93;;;;;;;-142.75;100.00;79285.75;5089216;28;20024;-67
2022/03/27 07:17:17;;;;;;;10.45;5.63;;;;;;;-142.75;100.00;79266.03;5088785;28;20110;-68
2022/03/27 07:19:46;;;;;;;10.87;5.43;;;;;;;-142.75;100.00;79248.31;5089658;28;20111;-68
2022/03/27 07:22:11;;;;;;;11.37;6.43;;;;;;;-142.75;100.00;79244.38;5088467;28;20024;-67
2022/03/27 07:24:37;;;;;;;8.23;4.60;;;;;;;-142.75;100.00;79244.38;5090106;28;20047;-68
2022/03/27 07:27:03;;;;;;;9.40;5.40;;;;;;;-142.75;100.00;79254.22;5087921;28;20139;-68
2022/03/27 07:29:30;;;;;;;13.93;5.88;;;;;;;-142.75;100.00;79254.22;5087928;28;20090;-68
2022/03/27 07:31:56;;;;;;;9.87;5.57;;;;;;;-142.75;100.00;79240.44;5089512;28;20027;-69
2022/03/27 07:34:22;;;;;;;9.98;5.80;;;;;;;-142.75;100.00;79240.44;5089361;28;20492;-68
2022/03/27 07:36:48;;;;;;;9.43;5.10;;;;;;;-142.75;100.00;79232.56;5089597;28;20020;-69
2022/03/27 07:39:13;;;;;;;10.55;5.93;;;;;;;-142.75;100.00;79212.84;5089281;28;20551;-69
2022/03/27 07:41:41;;;;;;;9.87;5.93;;;;;;;-142.75;100.00;79161.66;5089319;28;20020;-68
2022/03/27 07:44:07;;;;;;;10.33;6.13;;;;;;;-142.75;100.00;79134.06;5089804;28;20303;-69
2022/03/27 07:46:32;;;;;;;10.50;6.00;;;;;;;-142.75;100.00;79059.22;5089527;28;20443;-68
2022/03/27 07:48:58;;;;;;;12.35;6.43;;;;;;;-142.75;100.00;79006.03;5088958;28;20047;-68
2022/03/27 07:51:24;;;;;;;14.48;6.20;;;;;;;-142.75;100.00;78976.50;5087799;28;20103;-70
2022/03/27 07:53:49;;;;;;;10.27;5.85;;;;;;;-142.75;100.00;78978.47;5087498;28;20031;-67
2022/03/27 07:56:14;;;;;;;8.85;5.70;;;;;;;-142.75;100.00;78978.47;5090212;28;20057;-68
2022/03/27 07:58:40;;;;;;;8.65;5.47;;;;;;;-142.75;100.00;78935.13;5088918;28;20107;-69
2022/03/27 08:01:06;;;;;;;9.18;5.63;;;;;;;-142.75;100.00;78858.31;5089120;28;20023;-68
2022/03/27 08:03:33;;;;;;;10.38;6.13;;;;;;;-142.75;100.00;78820.88;5089302;28;20031;-67
2022/03/27 08:05:59;;;;;;;9.60;5.70;;;;;;;-142.75;100.00;78740.13;5089087;28;20024;-69
2022/03/27 08:08:25;;;;;;;9.63;5.43;;;;;;;-142.75;100.00;78683.03;5088364;28;20027;-67
2022/03/27 08:10:50;;;;;;;8.80;5.18;;;;;;;-142.75;100.00;78637.72;5089042;28;20028;-67
2022/03/27 08:13:15;;;;;;;10.30;6.20;;;;;;;-142.75;100.00;78645.59;5088883;28;20427;-67
2022/03/27 08:15:40;;;;;;;10.93;5.43;;;;;;;-142.75;100.00;78590.47;5089502;28;20380;-68
2022/03/27 08:18:06;;;;;;;9.77;5.75;;;;;;;-142.75;100.00;78590.47;5088548;28;20039;-68
2022/03/27 08:20:31;;;;;;;8.15;4.88;;;;;;;-142.75;100.00;78570.75;5088891;28;20028;-68
2022/03/27 08:22:57;;;;;;;10.32;5.78;;;;;;;-142.75;100.00;78527.44;5088574;28;20024;-69
2022/03/27 08:28:10;;;;;;;9.00;5.32;;;;;;;-142.75;100.00;78488.03;5088659;28;20101;-68
2022/03/27 08:30:35;;;;;;;10.25;5.22;;;;;;;-142.75;100.00;78521.53;5088606;28;20028;-67
2022/03/27 08:33:01;;;;;;;8.85;5.22;;;;;;;-142.75;100.00;78491.97;5087247;28;20440;-67
2022/03/27 08:35:26;;;;;;;9.52;5.60;;;;;;;-142.75;100.00;78464.41;5088374;28;20473;-68
2022/03/27 08:37:52;;;;;;;9.52;5.72;;;;;;;-142.75;100.00;78446.69;5087254;28;20020;-69
2022/03/27 08:40:18;;;;;;;9.15;5.10;;;;;;;-142.75;100.00;78452.59;5088337;28;20031;-68
2022/03/27 08:42:44;;;;;;;10.15;5.32;;;;;;;-142.75;100.00;78411.25;5088012;28;20442;-68
2022/03/27 08:45:10;;;;;;;11.32;5.45;;;;;;;-142.75;100.00;78409.28;5088233;28;20062;-68
2022/03/27 08:47:39;;;;;;;9.07;4.95;;;;;;;-142.75;100.00;78397.44;5087585;28;20103;-67
2022/03/27 08:50:39;;;;;;;8.48;4.88;;;;;;;-142.75;100.00;78415.19;5087332;28;20032;-68
2022/03/27 08:53:07;;;;;;;6.63;4.13;;;;;;;-142.75;100.00;78399.44;5072864;28;20533;-69
2022/03/27 08:55:42;;;;;;;7.05;4.22;;;;;;;-142.75;100.00;78387.59;5087452;28;20033;-69
2022/03/27 08:58:10;;;;;;;7.38;4.60;;;;;;;-142.75;100.00;78358.06;5087263;28;20031;-68
2022/03/27 09:00:35;;;;;;;6.78;4.25;;;;;;;-142.75;100.00;78314.75;5087721;28;20024;-70
2022/03/27 09:03:03;;;;;;;6.57;4.00;;;;;;;-142.75;100.00;78326.56;5087538;28;20585;-68
2022/03/27 09:05:29;;;;;;;6.25;3.53;;;;;;;-142.75;100.00;78291.09;5086051;28;20051;-68
2022/03/27 09:07:56;;;;;;;7.75;4.47;;;;;;;-142.75;100.00;78235.97;5085585;28;20024;-67
2022/03/27 09:10:23;;;;;;;11.70;3.83;;;;;;;-142.75;100.00;78188.72;5086809;28;20036;-68
2022/03/27 09:12:50;;;;;;;5.75;3.63;;;;;;;-142.75;100.00;78157.19;5086820;28;20032;-66
2022/03/27 09:15:19;;;;;;;7.18;3.90;;;;;;;-142.75;100.00;78222.19;5086951;28;20028;-68
2022/03/27 09:18:04;;;;;;;8.20;4.13;;;;;;;-142.75;100.00;78178.84;5085302;28;20035;-69
2022/03/27 09:20:44;;;;;;;6.43;4.00;;;;;;;-142.75;100.00;78180.81;5086738;28;20388;-67
2022/03/27 09:23:16;;;;;;;7.25;3.70;;;;;;;-142.75;100.00;78157.19;5085283;28;20022;-69
2022/03/27 09:25:51;;;;;;;7.68;3.95;;;;;;;-142.75;100.00;78121.75;5087397;28;20024;-69
2022/03/27 09:28:26;;;;;;;6.05;3.78;;;;;;;-142.75;100.00;78196.59;5086344;28;20035;-68
2022/03/27 09:30:52;;;;;;;9.10;4.47;;;;;;;-142.75;100.00;78137.50;5086936;28;20043;-68
2022/03/27 09:33:28;;;;;;;;;;;;;;;-142.75;100.00;78155.22;5087422;28;20036;-68
2022/03/27 09:36:07;;;;;;;7.07;3.88;;;;;;;-142.75;100.00;78167.03;5086698;28;20305;-69
2022/03/27 09:38:33;;;;;;;7.30;3.65;;;;;;;-142.75;100.00;78176.88;5085051;28;20024;-67
2022/03/27 09:40:58;;;;;;;7.78;4.30;;;;;;;-142.75;100.00;78115.84;5086903;28;20532;-69
2022/03/27 09:43:23;;;;;;;7.40;3.97;;;;;;;-142.75;99.16;78035.09;5086560;28;20031;-68
2022/03/27 09:45:54;;;;;;;;;;;;;;;-142.75;97.58;78042.97;5087197;28;20028;-69
2022/03/27 09:48:19;;;;;;;5.63;3.58;;;;;;;-142.75;89.75;78035.09;5086107;28;19912;-68
2022/03/27 09:50:44;;;;;;;;;;;;;;;-142.75;88.12;78007.53;5087811;28;20028;-70
2022/03/27 09:53:36;;;;;;;6.28;3.70;;;;;;;-142.75;90.43;78062.69;5090383;28;19957;-67
2022/03/27 09:56:01;;;;;;;6.07;4.03;;;;;;;-142.75;92.08;78060.72;5087819;28;20047;-68
2022/03/27 09:58:37;;;;;;;;;;;;;;;-142.75;86.29;78035.09;5090478;28;20481;-68
2022/03/27 10:01:16;;;;;;;6.13;3.65;;;;;;;-142.75;82.86;77946.50;5090066;28;19912;-68
2022/03/27 10:03:57;;;;;;;7.30;4.03;;;;;;;-142.75;79.10;77940.59;5090096;28;20028;-68
2022/03/27 10:06:42;;;;;;;6.22;3.92;;;;;;;-142.75;78.70;77936.66;5089970;28;20035;-67
2022/03/27 10:09:10;;;;;;;5.93;3.72;;;;;;;-142.75;75.55;77899.22;5089742;28;20489;-68
2022/03/27 10:11:36;;;;;;;5.88;3.60;;;;;;;-142.75;78.72;77956.34;5090322;28;20028;-68
2022/03/27 10:14:04;;;;;;;5.55;3.33;;;;;;;-142.75;76.95;77938.63;5090027;28;20028;-68
2022/03/27 10:16:35;;;;;;;6.57;4.18;;;;;;;-142.75;73.89;77903.16;5088658;28;20020;-69
2022/03/27 10:19:06;;;;;;;6.45;3.45;;;;;;;-142.75;69.87;77846.06;5089335;28;20028;-68
2022/03/27 10:21:32;;;;;;;5.93;3.53;;;;;;;-142.75;75.52;77830.31;5089712;28;20374;-67
2022/03/27 10:24:19;;;;;;;6.68;3.65;;;;;;;-142.75;71.21;77824.41;5089681;28;20050;-67
2022/03/27 10:26:45;;;;;;;8.20;4.25;;;;;;;-142.75;72.94;77855.91;5090493;28;20032;-67
2022/03/27 10:29:13;;;;;;;6.45;3.92;;;;;;;-142.75;68.08;77824.41;5089310;28;20485;-67
2022/03/27 10:31:38;;;;;;;6.93;3.83;;;;;;;-142.75;73.52;77857.88;5089436;28;20030;-68
2022/03/27 10:34:06;;;;;;;6.30;3.70;;;;;;;-142.75;70.45;77905.13;5089738;28;20118;-69
2022/03/27 10:36:40;;;;;;;7.85;3.70;;;;;;;-142.75;71.72;77889.38;5089636;28;20039;-69
2022/03/27 10:39:19;;;;;;;6.45;3.60;;;;;;;-142.75;71.10;77942.56;5089233;28;20023;-70
2022/03/27 10:42:02;;;;;;;6.10;3.00;;;;;;;-142.75;70.62;77944.53;5088017;28;20115;-66
2022/03/27 10:44:46;;;;;;;8.13;4.03;;;;;;;-142.75;64.93;77861.81;5088913;28;22395;-68
2022/03/27 10:47:14;;;;;;;4.82;3.13;;;;;;;-142.75;67.13;77812.59;5089420;28;20020;-69
2022/03/27 10:49:41;;;;;;;3.88;2.58;;;;;;;-142.75;64.45;77830.31;5088863;28;20024;-69
2022/03/27 10:52:08;;;;;;;5.78;2.95;;;;;;;-142.75;61.34;77812.59;5089262;28;20024;-71
2022/03/27 10:55:01;;;;;;;5.22;3.08;;;;;;;-142.75;63.43;77816.53;5088447;28;20055;-69
2022/03/27 10:57:33;;;;;;;6.30;3.40;;;;;;;-142.75;60.01;77812.59;5089820;28;20032;-68
2022/03/27 10:59:59;;;;;;;4.72;2.72;;;;;;;-142.75;61.95;77804.72;5087398;28;20020;-67
2022/03/27 11:02:47;;;;;;;5.20;2.97;;;;;;;-142.75;61.04;77763.38;5089031;28;20516;-69
2022/03/27 11:05:37;;;;;;;5.97;3.13;;;;;;;-142.75;57.51;77670.81;5089199;28;20019;-65
2022/03/27 11:08:17;;;;;;;4.65;2.70;;;;;;;-142.75;57.76;77696.41;5088687;28;20024;-69
2022/03/27 11:10:49;;;;;;;5.15;2.55;;;;;;;-142.75;61.08;77757.47;5088882;28;20024;-68
2022/03/27 11:13:28;;;;;;;4.63;3.00;;;;;;;-142.75;64.94;77781.09;5089198;28;20393;-69
2022/03/27 11:16:08;;;;;;;4.65;3.10;;;;;;;-142.75;62.70;77737.78;5089230;28;20057;-69
2022/03/27 11:18:37;;;;;;;5.90;3.40;;;;;;;-142.75;57.97;77704.28;5088375;28;20090;-68
2022/03/27 11:21:04;;;;;;;4.68;2.90;;;;;;;-142.75;61.11;77692.47;5088453;28;20051;-69